Time;durP1;ratioP1;P1;durP2;ratioP2;P2;SDS_P1;SDS_P2;PMS_P1;PMS_P2;Temp;Humidity;BMP_temperature;BMP_pressure;BME280_temperature;BME280_humidity;BME280_pressure;Samples;Min_cycle;Max_cycle;Signal;HPM_P1;HPM_P2
2022/12/16 00:02:46;;;;;;;;;19.00;16.75;;;;;14.15;85.60;101054.81;146616;607;46919;-79
2022/12/16 00:05:38;;;;;;;;;22.75;20.00;;;;;14.10;85.84;101055.50;146621;642;46010;-79
2022/12/16 00:08:34;;;;;;;;;37.50;32.00;;;;;14.09;86.60;101050.22;146617;571;46919;-80
2022/12/16 00:11:27;;;;;;;;;41.75;32.25;;;;;14.06;85.87;101055.31;146620;625;47020;-80
2022/12/16 00:14:32;;;;;;;;;;;;;;;;;;;;;
2022/12/16 00:17:50;;;;;;;;;30.25;24.50;;;;;12.45;84.80;100785.28;146622;593;46029;-79
2022/12/16 00:20:49;;;;;;;;;29.50;24.50;;;;;13.97;85.06;101058.41;146616;591;46012;-80
2022/12/16 00:23:54;;;;;;;;;31.75;25.00;;;;;13.93;84.57;101063.44;146619;594;46020;-79
2022/12/16 00:26:50;;;;;;;;;29.75;24.50;;;;;13.88;84.88;101060.63;146611;600;46016;-78
2022/12/16 00:29:45;;;;;;;;;25.50;18.50;;;;;13.85;84.94;101058.78;146619;575;46020;-81
2022/12/16 00:33:04;;;;;;;;;30.50;25.25;;;;;13.83;84.71;101056.91;146615;569;46033;-80
2022/12/16 00:36:12;;;;;;;;;21.25;20.00;;;;;13.81;84.24;101066.41;146620;599;46029;-80
2022/12/16 00:39:09;;;;;;;;;12.25;12.25;;;;;13.76;84.19;101054.88;146613;582;46017;-79
2022/12/16 00:42:17;;;;;;;;;;;;;;;;;;;;;
2022/12/16 00:45:13;;;;;;;;;20.25;18.75;;;;;13.60;83.73;101054.22;146610;574;46917;-80
2022/12/16 00:48:09;;;;;;;;;22.75;19.00;;;;;13.53;84.39;101053.87;146617;570;46020;-80
2022/12/16 00:51:10;;;;;;;;;18.00;18.00;;;;;13.49;84.53;101054.53;146617;579;46012;-79
2022/12/16 00:54:05;;;;;;;;;16.75;15.75;;;;;13.43;84.75;101060.41;146617;564;46021;-78
2022/12/16 00:57:06;;;;;;;;;16.00;14.00;;;;;13.38;84.41;101060.19;146615;569;46037;-81
2022/12/16 01:00:14;;;;;;;;;;;;;;;;;;;;;
2022/12/16 01:03:07;;;;;;;;;18.00;14.75;;;;;13.28;84.53;101065.81;146614;583;46012;-81
2022/12/16 01:06:13;;;;;;;;;15.25;14.00;;;;;13.25;85.10;101065.66;146618;573;46020;-79
2022/12/16 01:09:15;;;;;;;;;17.50;15.50;;;;;13.17;84.58;101056.56;146617;578;46017;-77
2022/12/16 01:12:18;;;;;;;;;14.75;12.75;;;;;13.14;85.34;101051.22;146619;625;46020;-78
2022/12/16 01:15:18;;;;;;;;;13.25;11.00;;;;;13.12;85.56;101047.66;146619;586;45016;-78
2022/12/16 01:18:16;;;;;;;;;13.75;10.75;;;;;13.15;85.88;101053.00;146619;623;46021;-82
2022/12/16 01:21:19;;;;;;;;;15.00;12.25;;;;;13.17;86.87;101047.03;146617;571;46918;-83
2022/12/16 01:24:27;;;;;;;;;12.75;10.75;;;;;13.20;86.93;101051.50;146618;665;46021;-82
2022/12/16 01:27:35;;;;;;;;;16.25;11.00;;;;;10.60;86.39;100591.41;146611;599;46016;-82
2022/12/16 01:30:33;;;;;;;;;15.75;11.25;;;;;13.29;86.54;101056.28;146615;629;47021;-79
2022/12/16 01:33:25;;;;;;;;;14.50;12.50;;;;;13.32;86.77;101056.41;146613;564;46012;-80
2022/12/16 01:36:17;;;;;;;;;12.25;11.25;;;;;13.36;86.86;101056.63;146614;581;46010;-78
2022/12/16 01:39:10;;;;;;;;;13.00;11.00;;;;;13.42;87.00;101069.03;146612;615;46016;-80
2022/12/16 01:42:02;;;;;;;;;13.50;12.25;;;;;13.47;87.18;101064.03;146612;633;46020;-78
2022/12/16 01:44:55;;;;;;;;;11.25;10.75;;;;;13.51;86.60;101068.53;146611;612;46016;-79
2022/12/16 01:47:47;;;;;;;;;13.50;10.75;;;;;13.55;86.71;101073.97;146613;571;46020;-82
2022/12/16 01:50:40;;;;;;;;;15.25;12.00;;;;;13.58;86.60;101067.97;146611;570;46016;-80
2022/12/16 01:54:04;;;;;;;;;14.75;11.50;;;;;11.02;85.85;100615.03;146613;569;46021;-81
2022/12/16 01:57:12;;;;;;;;;13.25;11.50;;;;;13.65;86.80;101077.00;146609;565;46012;-82
2022/12/16 02:00:11;;;;;;;;;17.25;13.50;;;;;13.70;87.34;101078.97;146615;629;46020;-81
2022/12/16 02:03:36;;;;;;;;;14.00;11.50;;;;;13.77;86.45;101074.91;146612;622;46016;-81
2022/12/16 02:06:54;;;;;;;;;17.00;13.75;;;;;11.17;87.44;100604.50;146613;602;46010;-81
2022/12/16 02:09:47;;;;;;;;;13.00;12.75;;;;;13.86;88.62;101062.28;146611;649;46016;-81
2022/12/16 02:13:07;;;;;;;;;14.50;13.00;;;;;11.20;87.19;100591.66;146611;574;46020;-79
2022/12/16 02:16:26;;;;;;;;;17.50;15.25;;;;;12.35;88.29;100777.91;146613;618;46014;-79
2022/12/16 02:20:15;;;;;;;;;15.00;13.25;;;;;14.07;87.80;101065.78;146615;621;45030;-81
2022/12/16 02:23:43;;;;;;;;;18.00;15.25;;;;;14.12;87.88;101055.59;146609;585;46917;-79
2022/12/16 02:27:21;;;;;;;;;22.25;16.50;;;;;14.20;87.50;101054.16;146634;589;45020;-82
2022/12/16 02:31:19;;;;;;;;;19.25;15.75;;;;;11.63;86.79;100592.75;146632;619;45014;-83
2022/12/16 02:34:47;;;;;;;;;18.25;16.00;;;;;11.74;86.70;100601.88;146632;583;46010;-82
2022/12/16 02:38:03;;;;;;;;;21.00;15.50;;;;;14.40;87.55;101064.56;146634;615;45012;-78
2022/12/16 02:41:19;;;;;;;;;23.75;18.50;;;;;14.42;88.45;101055.94;146635;593;45020;-78
2022/12/16 02:44:29;;;;;;;;;19.75;18.25;;;;;11.72;87.92;100582.75;146631;569;46917;-78
2022/12/16 02:47:23;;;;;;;;;25.00;21.00;;;;;14.46;89.20;101047.44;146634;601;45012;-78
2022/12/16 02:50:46;;;;;;;;;24.00;18.75;;;;;14.47;89.00;101057.03;146632;669;45034;-78
2022/12/16 02:53:44;;;;;;;;;21.00;19.00;;;;;14.47;88.19;101051.81;146633;663;46011;-79
2022/12/16 02:57:17;;;;;;;;;14.25;14.00;;;;;14.48;87.97;101053.56;146630;613;47918;-78
2022/12/16 03:00:40;;;;;;;;;19.75;17.75;;;;;11.84;88.03;100598.88;146635;608;45020;-77
2022/12/16 03:03:58;;;;;;;;;20.75;19.25;;;;;14.48;88.87;101050.09;146633;690;45016;-77
2022/12/16 03:06:57;;;;;;;;;25.25;20.00;;;;;14.50;88.46;101061.47;146636;612;45010;-78
2022/12/16 03:09:53;;;;;;;;;25.50;19.75;;;;;14.50;88.80;101049.31;146631;590;46012;-78
2022/12/16 03:12:50;;;;;;;;;30.75;21.25;;;;;14.53;88.37;101059.03;146633;576;46010;-77
2022/12/16 03:15:52;;;;;;;;;24.50;20.25;;;;;14.53;89.08;101057.31;146635;615;45017;-77
2022/12/16 03:18:52;;;;;;;;;27.00;21.50;;;;;14.55;89.04;101057.37;146629;584;46012;-78
2022/12/16 03:22:06;;;;;;;;;23.75;20.00;;;;;14.54;87.92;101064.28;146632;575;46013;-77
2022/12/16 03:25:08;;;;;;;;;20.25;18.75;;;;;14.56;89.14;101061.78;146617;565;46915;-77
2022/12/16 03:28:48;;;;;;;;;20.75;20.00;;;;;13.02;87.92;100795.53;146630;612;46012;-77
2022/12/16 03:32:11;;;;;;;;;22.75;19.50;;;;;14.57;88.89;101055.72;146636;572;46010;-75
2022/12/16 03:35:36;;;;;;;;;24.00;22.25;;;;;12.08;88.12;100612.06;146631;576;45016;-82
2022/12/16 03:38:39;;;;;;;;;23.25;19.75;;;;;14.61;88.41;101061.94;146637;574;45012;-82
2022/12/16 03:41:41;;;;;;;;;23.75;18.50;;;;;14.61;88.60;101057.63;146636;579;45016;-81
2022/12/16 03:44:35;;;;;;;;;22.50;19.00;;;;;14.61;88.78;101062.84;146633;611;46010;-84
2022/12/16 03:47:37;;;;;;;;;21.00;19.25;;;;;14.61;88.64;101051.50;146632;608;45012;-81
2022/12/16 03:50:40;;;;;;;;;22.00;20.75;;;;;14.62;88.64;101059.41;146633;694;46010;-81
2022/12/16 03:53:33;;;;;;;;;20.75;17.75;;;;;14.61;88.61;101055.03;146633;647;45017;-82
2022/12/16 03:56:26;;;;;;;;;31.00;21.50;;;;;14.63;88.26;101065.50;146637;606;45010;-81
2022/12/16 03:59:24;;;;;;;;;25.75;21.00;;;;;14.64;88.27;101072.50;146632;571;45016;-81
2022/12/16 04:02:18;;;;;;;;;24.00;21.75;;;;;14.64;88.61;101068.19;146635;586;46010;-78
2022/12/16 04:05:11;;;;;;;;;18.00;15.50;;;;;14.67;88.46;101073.53;146629;579;46012;-80
2022/12/16 04:08:17;;;;;;;;;;;;;;;;;;;;;
2022/12/16 04:24:23;;;;;;;;;24.00;20.75;;;;;14.61;88.75;101088.03;146631;622;45032;-77
2022/12/16 04:27:28;;;;;;;;;25.25;20.25;;;;;14.60;88.78;101097.59;146622;572;46010;-77
2022/12/16 04:30:48;;;;;;;;;22.75;18.25;;;;;12.09;87.77;100663.25;146613;626;46012;-79
